Time;durP1;ratioP1;P1;durP2;ratioP2;P2;SDS_P1;SDS_P2;PMS_P1;PMS_P2;Temp;Humidity;BMP_temperature;BMP_pressure;BME280_temperature;BME280_humidity;BME280_pressure;Samples;Min_cycle;Max_cycle;Signal;HPM_P1;HPM_P2
2021/05/18 00:00:00;;;;;;;0.30;0.30;;;;;;;;;;5092882;28;20063;-48
2021/05/18 00:02:26;;;;;;;1.30;0.43;;;;;;;;;;5092400;28;20407;-48
2021/05/18 00:04:52;;;;;;;0.38;0.38;;;;;;;;;;5092756;28;20027;-48
2021/05/18 00:07:22;;;;;;;0.70;0.32;;;;;;;;;;5087605;28;20028;-48
2021/05/18 00:12:34;;;;;;;0.75;0.40;;;;;;;;;;5072440;28;20051;-48
2021/05/18 00:15:01;;;;;;;0.30;0.30;;;;;;;;;;5072275;28;20028;-47
2021/05/18 00:17:28;;;;;;;0.50;0.50;;;;;;;;;;5071565;28;20028;-48
2021/05/18 00:19:54;;;;;;;0.55;0.45;;;;;;;;;;5072296;28;20047;-48
2021/05/18 00:22:20;;;;;;;1.55;0.40;;;;;;;;;;5071666;28;20071;-48
2021/05/18 00:24:46;;;;;;;0.40;0.40;;;;;;;;;;5072240;28;20017;-48
2021/05/18 00:27:13;;;;;;;0.40;0.40;;;;;;;;;;5077007;28;20012;-48
2021/05/18 00:29:39;;;;;;;0.20;0.20;;;;;;;;;;5092055;28;20032;-47
2021/05/18 00:32:05;;;;;;;0.63;0.50;;;;;;;;;;5091715;28;20115;-48
2021/05/18 00:34:31;;;;;;;1.48;0.70;;;;;;;;;;5092403;28;20147;-48
2021/05/18 00:36:57;;;;;;;0.40;0.40;;;;;;;;;;5091733;28;20123;-49
2021/05/18 00:39:23;;;;;;;0.90;0.50;;;;;;;;;;5092278;28;20032;-48
2021/05/18 00:41:49;;;;;;;0.43;0.43;;;;;;;;;;5091055;28;20353;-48
2021/05/18 00:44:15;;;;;;;1.52;0.60;;;;;;;;;;5092043;28;20016;-48
2021/05/18 00:46:42;;;;;;;0.40;0.40;;;;;;;;;;5091415;28;20023;-48
2021/05/18 00:49:08;;;;;;;3.83;0.40;;;;;;;;;;5092018;28;20024;-47
2021/05/18 00:51:34;;;;;;;2.90;0.50;;;;;;;;;;5091530;28;20032;-48
2021/05/18 00:54:04;;;;;;;2.08;0.40;;;;;;;;;;5091996;28;20028;-49
2021/05/18 00:58:26;;;;;;;1.80;0.85;;;;;;;;;;5091620;28;20032;-48
2021/05/18 00:59:19;;;;;;;0.38;0.30;;;;;;;;;;5091400;28;20044;-48
2021/05/18 01:01:45;;;;;;;0.30;0.30;;;;;;;;;;5091290;28;20020;-48
2021/05/18 01:04:14;;;;;;;0.40;0.40;;;;;;;;;;5091812;28;20070;-48
2021/05/18 01:06:41;;;;;;;0.30;0.30;;;;;;;;;;5092030;28;20370;-48
2021/05/18 01:09:12;;;;;;;0.52;0.47;;;;;;;;;;5091527;28;20186;-48
2021/05/18 01:11:40;;;;;;;0.20;0.20;;;;;;;;;;5091085;28;20081;-49
2021/05/18 01:14:12;;;;;;;0.50;0.50;;;;;;;;;;5091604;28;20055;-48
2021/05/18 01:16:41;;;;;;;0.38;0.38;;;;;;;;;;5091585;28;20074;-48
2021/05/18 01:19:07;;;;;;;0.45;0.45;;;;;;;;;;5091837;28;20028;-48
2021/05/18 01:21:33;;;;;;;1.10;0.30;;;;;;;;;;5091553;28;20023;-48
2021/05/18 01:23:59;;;;;;;0.30;0.30;;;;;;;;;;5091070;28;20035;-47
2021/05/18 01:26:26;;;;;;;0.40;0.40;;;;;;;;;;5091149;28;20024;-49
2021/05/18 01:28:52;;;;;;;0.38;0.38;;;;;;;;;;5091230;28;20115;-48
2021/05/18 01:31:22;;;;;;;0.28;0.28;;;;;;;;;;5091298;28;20395;-48
2021/05/18 01:33:48;;;;;;;0.35;0.32;;;;;;;;;;5091397;28;20066;-49
2021/05/18 01:36:19;;;;;;;0.30;0.30;;;;;;;;;;5091104;28;20418;-48
2021/05/18 01:44:03;;;;;;;2.58;0.50;;;;;;;;;;5071138;28;20353;-48
2021/05/18 01:46:29;;;;;;;0.40;0.40;;;;;;;;;;5071556;28;20043;-48
2021/05/18 01:48:59;;;;;;;0.88;0.40;;;;;;;;;;5070998;28;20051;-48
2021/05/18 01:51:27;;;;;;;2.13;0.40;;;;;;;;;;5077361;28;20028;-49
2021/05/18 01:53:53;;;;;;;0.47;0.32;;;;;;;;;;5094313;28;20031;-48
2021/05/18 01:56:47;;;;;;;0.20;0.20;;;;;;;;;;5094896;28;20434;-48
2021/05/18 01:59:07;;;;;;;0.57;0.47;;;;;;;;;;5094853;28;20046;-48
2021/05/18 02:01:33;;;;;;;0.30;0.30;;;;;;;;;;5094680;28;20024;-48
2021/05/18 02:03:59;;;;;;;0.40;0.40;;;;;;;;;;5095128;28;20386;-48
2021/05/18 02:06:25;;;;;;;0.40;0.40;;;;;;;;;;5094912;28;20040;-48
2021/05/18 02:08:51;;;;;;;2.20;0.43;;;;;;;;;;5094709;28;20036;-48
2021/05/18 02:11:17;;;;;;;0.30;0.30;;;;;;;;;;5094628;28;20024;-49
2021/05/18 02:13:48;;;;;;;2.83;0.60;;;;;;;;;;5095052;28;20024;-48
2021/05/18 02:16:22;;;;;;;4.28;0.40;;;;;;;;;;5094138;28;20048;-48
2021/05/18 02:21:50;;;;;;;0.43;0.40;;;;;;;;;;5094432;28;20086;-48
2021/05/18 02:27:01;;;;;;;0.30;0.30;;;;;;;;;;5089511;28;20067;-48
2021/05/18 02:29:27;;;;;;;0.40;0.40;;;;;;;;;;5074105;28;20028;-47
2021/05/18 02:31:55;;;;;;;0.90;0.40;;;;;;;;;;5073549;28;20024;-48
2021/05/18 02:34:21;;;;;;;0.43;0.43;;;;;;;;;;5074006;28;20029;-48
2021/05/18 02:36:47;;;;;;;0.30;0.30;;;;;;;;;;5073932;28;20033;-48
2021/05/18 02:39:13;;;;;;;0.30;0.30;;;;;;;;;;5077169;28;20085;-48
2021/05/18 02:41:39;;;;;;;0.30;0.30;;;;;;;;;;5093386;28;20024;-48
2021/05/18 02:44:15;;;;;;;0.30;0.30;;;;;;;;;;5094245;28;20036;-48
2021/05/18 02:49:26;;;;;;;0.40;0.40;;;;;;;;;;5093970;28;20127;-48
2021/05/18 02:51:52;;;;;;;0.57;0.55;;;;;;;;;;5093842;28;20016;-48
2021/05/18 02:54:24;;;;;;;0.30;0.30;;;;;;;;;;5094136;28;20055;-48
2021/05/18 02:56:57;;;;;;;1.85;0.80;;;;;;;;;;5094059;28;20101;-48
2021/05/18 02:59:23;;;;;;;0.38;0.38;;;;;;;;;;5093667;28;20143;-48
2021/05/18 03:01:59;;;;;;;0.32;0.30;;;;;;;;;;5093667;28;20028;-48
2021/05/18 03:04:26;;;;;;;0.28;0.28;;;;;;;;;;5093046;28;20032;-48
2021/05/18 03:06:53;;;;;;;0.57;0.52;;;;;;;;;;5092885;28;20024;-48
2021/05/18 03:09:19;;;;;;;1.75;0.50;;;;;;;;;;5073211;28;20385;-48
2021/05/18 03:11:47;;;;;;;0.52;0.52;;;;;;;;;;5073176;28;20234;-48
2021/05/18 03:14:13;;;;;;;0.40;0.40;;;;;;;;;;5073304;28;20017;-48
2021/05/18 03:16:40;;;;;;;0.40;0.40;;;;;;;;;;5072476;28;20054;-48
2021/05/18 03:19:07;;;;;;;0.30;0.30;;;;;;;;;;5072893;28;20028;-47
2021/05/18 03:21:33;;;;;;;1.02;0.40;;;;;;;;;;5073054;28;20028;-47
2021/05/18 03:23:59;;;;;;;0.30;0.30;;;;;;;;;;5073414;28;20024;-48
2021/05/18 03:26:28;;;;;;;0.52;0.50;;;;;;;;;;5073609;28;20059;-48
2021/05/18 03:28:59;;;;;;;1.03;0.40;;;;;;;;;;5091552;28;20396;-48
2021/05/18 03:34:33;;;;;;;0.75;0.60;;;;;;;;;;5093725;28;20369;-48
2021/05/18 03:37:02;;;;;;;0.80;0.40;;;;;;;;;;5093242;28;20691;-47
2021/05/18 03:39:28;;;;;;;0.50;0.50;;;;;;;;;;5092863;28;20067;-48
2021/05/18 03:41:59;;;;;;;0.45;0.43;;;;;;;;;;5090158;28;20536;-48
2021/05/18 03:44:40;;;;;;;4.28;0.40;;;;;;;;;;5072556;28;20517;-49
2021/05/18 03:52:37;;;;;;;0.30;0.30;;;;;;;;;;5089754;28;20046;-48
2021/05/18 03:58:34;;;;;;;0.47;0.47;;;;;;;;;;5092971;28;20351;-48
2021/05/18 04:03:30;;;;;;;0.65;0.45;;;;;;;;;;5072788;28;20058;-48
2021/05/18 04:16:52;;;;;;;0.95;0.50;;;;;;;;;;5061772;28;20427;-47
2021/05/18 04:16:59;;;;;;;0.52;0.52;;;;;;;;;;5070648;28;20040;-48
2021/05/18 04:19:37;;;;;;;0.60;0.45;;;;;;;;;;5071396;28;20155;-48
2021/05/18 04:22:18;;;;;;;0.68;0.40;;;;;;;;;;5070809;28;20049;-48
2021/05/18 04:49:47;;;;;;;1.20;0.75;;;;;;;;;;5091894;28;20039;-49
2021/05/18 04:52:19;;;;;;;0.60;0.60;;;;;;;;;;5090846;28;20036;-48
2021/05/18 04:59:01;;;;;;;0.52;0.50;;;;;;;;;;5091268;28;20028;-48
2021/05/18 05:00:15;;;;;;;0.60;0.60;;;;;;;;;;5090976;28;20047;-48
2021/05/18 05:15:31;;;;;;;0.30;0.30;;;;;;;;;;5070662;28;20025;-48
2021/05/18 05:17:57;;;;;;;0.35;0.35;;;;;;;;;;5071226;28;20036;-48
2021/05/18 05:20:24;;;;;;;0.38;0.38;;;;;;;;;;5071245;28;20119;-48
2021/05/18 05:22:50;;;;;;;0.63;0.32;;;;;;;;;;5071465;28;20070;-49
2021/05/18 05:25:16;;;;;;;0.30;0.30;;;;;;;;;;5070950;28;20083;-48
2021/05/18 05:27:42;;;;;;;0.40;0.40;;;;;;;;;;5080320;28;20495;-48
2021/05/18 05:30:08;;;;;;;0.50;0.50;;;;;;;;;;5090692;28;20217;-48
2021/05/18 05:32:34;;;;;;;0.40;0.32;;;;;;;;;;5091147;28;20071;-48
2021/05/18 05:35:00;;;;;;;0.35;0.35;;;;;;;;;;5091488;28;20032;-48
2021/05/18 05:37:28;;;;;;;0.30;0.30;;;;;;;;;;5091033;28;20482;-48
2021/05/18 05:39:54;;;;;;;0.38;0.38;;;;;;;;;;5091378;28;20028;-49
2021/05/18 05:42:21;;;;;;;0.30;0.30;;;;;;;;;;5090636;28;20422;-49
2021/05/18 05:44:47;;;;;;;0.50;0.47;;;;;;;;;;5090799;28;20055;-48
2021/05/18 05:47:13;;;;;;;0.40;0.40;;;;;;;;;;5091147;28;20028;-49
2021/05/18 05:49:40;;;;;;;2.22;0.60;;;;;;;;;;5090969;28;20508;-49
2021/05/18 05:52:06;;;;;;;0.77;0.50;;;;;;;;;;5090543;28;20016;-48
2021/05/18 05:54:34;;;;;;;0.40;0.40;;;;;;;;;;5090776;28;20028;-48
2021/05/18 05:57:00;;;;;;;0.32;0.32;;;;;;;;;;5090062;28;20020;-48
2021/05/18 05:59:26;;;;;;;0.40;0.40;;;;;;;;;;5090634;28;20048;-48
2021/05/18 06:01:52;;;;;;;0.47;0.47;;;;;;;;;;5090815;28;20062;-48
2021/05/18 06:04:18;;;;;;;0.90;0.70;;;;;;;;;;5091095;28;20028;-48
2021/05/18 06:06:44;;;;;;;1.10;0.85;;;;;;;;;;5090930;28;20366;-48
2021/05/18 06:09:10;;;;;;;0.32;0.32;;;;;;;;;;5070820;28;20032;-48
2021/05/18 06:49:02;;;;;;;1.38;0.50;;;;;;;;;;5112030;28;20050;-48
2021/05/18 06:51:28;;;;;;;0.63;0.60;;;;;;;;;;5111088;28;20059;-48
2021/05/18 06:53:54;;;;;;;1.13;0.57;;;;;;;;;;5111858;28;20372;-49
2021/05/18 06:56:20;;;;;;;0.50;0.50;;;;;;;;;;5111390;28;20032;-48
2021/05/18 07:00:08;;;;;;;0.38;0.38;;;;;;;;;;5111303;28;20047;-49
2021/05/18 07:01:32;;;;;;;0.32;0.32;;;;;;;;;;5110725;28;20028;-49
2021/05/18 07:04:04;;;;;;;1.55;0.68;;;;;;;;;;5111482;28;20028;-48
2021/05/18 07:06:43;;;;;;;0.80;0.68;;;;;;;;;;5111657;28;20066;-49
2021/05/18 07:09:09;;;;;;;1.98;0.73;;;;;;;;;;5111340;28;20051;-49
2021/05/18 07:11:35;;;;;;;0.55;0.55;;;;;;;;;;5110827;28;20032;-49
2021/05/18 07:14:01;;;;;;;1.13;0.43;;;;;;;;;;5111270;28;20032;-49
2021/05/18 07:16:27;;;;;;;1.65;0.52;;;;;;;;;;5108870;28;20016;-48
2021/05/18 07:18:53;;;;;;;0.50;0.50;;;;;;;;;;5093406;28;20047;-48
2021/05/18 07:21:20;;;;;;;2.92;0.50;;;;;;;;;;5093377;28;20024;-49
2021/05/18 07:23:47;;;;;;;1.48;0.52;;;;;;;;;;5093468;28;20362;-49
2021/05/18 07:26:13;;;;;;;0.45;0.45;;;;;;;;;;5093562;28;20024;-48
2021/05/18 07:28:39;;;;;;;0.47;0.47;;;;;;;;;;5093152;28;20043;-49
2021/05/18 07:31:06;;;;;;;6.03;0.43;;;;;;;;;;5092929;28;20416;-48
2021/05/18 07:33:32;;;;;;;0.60;0.60;;;;;;;;;;5093481;28;20353;-48
2021/05/18 07:36:03;;;;;;;0.50;0.50;;;;;;;;;;5093533;28;20063;-48
2021/05/18 07:38:29;;;;;;;;;;;;;;;;;;5094123;28;20032;-49
2021/05/18 07:40:55;;;;;;;0.85;0.65;;;;;;;;;;5092872;28;20014;-48
2021/05/18 07:43:21;;;;;;;1.75;0.73;;;;;;;;;;5092733;28;20442;-48
2021/05/18 07:45:58;;;;;;;0.60;0.55;;;;;;;;;;5093490;28;20028;-48
2021/05/18 07:51:12;;;;;;;3.75;0.60;;;;;;;;;;5092819;28;20054;-48
2021/05/18 08:07:17;;;;;;;1.27;0.70;;;;;;;;;;5092719;28;20022;-48
2021/05/18 08:09:47;;;;;;;1.73;0.68;;;;;;;;;;5092776;28;20024;-48
2021/05/18 08:12:14;;;;;;;1.35;0.70;;;;;;;;;;5092006;28;20031;-49
2021/05/18 08:14:48;;;;;;;0.80;0.70;;;;;;;;;;5092528;28;20039;-48
2021/05/18 09:30:03;;;;;;;8.68;2.22;;;;;;;;;;5086645;28;20035;-48
2021/05/18 10:35:56;;;;;;;1.30;0.70;;;;;;;;;;5093107;28;20043;-48
2021/05/18 10:38:35;;;;;;;2.65;1.23;;;;;;;;;;5091707;28;20035;-48
2021/05/18 10:41:18;;;;;;;3.03;0.85;;;;;;;;;;5091157;28;20070;-48
2021/05/18 10:44:05;;;;;;;3.05;1.10;;;;;;;;;;5091179;28;20024;-49
2021/05/18 10:46:47;;;;;;;3.80;0.82;;;;;;;;;;5091484;28;20032;-48
2021/05/18 10:49:13;;;;;;;1.77;0.82;;;;;;;;;;5091329;28;20082;-48
2021/05/18 10:51:43;;;;;;;0.45;0.45;;;;;;;;;;5091166;28;20028;-48
2021/05/18 10:54:25;;;;;;;3.78;0.50;;;;;;;;;;5091083;28;20031;-48
2021/05/18 10:59:24;;;;;;;2.08;0.70;;;;;;;;;;5091048;28;20028;-49
2021/05/18 11:01:56;;;;;;;1.75;0.50;;;;;;;;;;5090958;28;20039;-48
2021/05/18 11:04:22;;;;;;;5.28;1.52;;;;;;;;;;5091162;28;20028;-48
2021/05/18 11:06:54;;;;;;;0.50;0.50;;;;;;;;;;5090586;28;20024;-48
2021/05/18 11:09:20;;;;;;;1.77;0.73;;;;;;;;;;5070604;28;20460;-48
2021/05/18 11:11:47;;;;;;;0.45;0.45;;;;;;;;;;5070055;28;20028;-47
2021/05/18 11:14:15;;;;;;;2.50;0.82;;;;;;;;;;5071446;28;20452;-48
2021/05/18 11:16:41;;;;;;;0.47;0.47;;;;;;;;;;5073418;28;20021;-49
2021/05/18 11:19:13;;;;;;;0.82;0.50;;;;;;;;;;5073533;28;20036;-49
2021/05/18 11:21:54;;;;;;;0.40;0.40;;;;;;;;;;5072785;28;20021;-49
2021/05/18 11:24:20;;;;;;;0.68;0.60;;;;;;;;;;5072976;28;20047;-48
2021/05/18 11:26:49;;;;;;;1.92;0.80;;;;;;;;;;5074551;28;20029;-48
2021/05/18 11:29:15;;;;;;;1.13;0.65;;;;;;;;;;5092769;28;20516;-47
2021/05/18 11:31:42;;;;;;;3.20;0.95;;;;;;;;;;5093258;28;20020;-49
2021/05/18 11:34:08;;;;;;;1.73;0.68;;;;;;;;;;5093617;28;20016;-48
2021/05/18 11:36:37;;;;;;;1.42;0.55;;;;;;;;;;5093515;28;20067;-48
2021/05/18 11:39:06;;;;;;;2.97;1.00;;;;;;;;;;5092795;28;20028;-48
2021/05/18 11:41:38;;;;;;;2.40;0.80;;;;;;;;;;5092826;28;20401;-49
2021/05/18 11:44:04;;;;;;;2.17;0.47;;;;;;;;;;5093372;28;20028;-48
2021/05/18 11:46:31;;;;;;;2.90;0.60;;;;;;;;;;5093244;28;20028;-48
2021/05/18 11:49:01;;;;;;;0.40;0.40;;;;;;;;;;5093033;28;20026;-48
2021/05/18 11:51:40;;;;;;;1.95;0.65;;;;;;;;;;5092700;28;20373;-48
2021/05/18 11:54:06;;;;;;;0.40;0.40;;;;;;;;;;5092538;28;20161;-48
2021/05/18 11:56:33;;;;;;;1.15;0.70;;;;;;;;;;5092695;28;20070;-48
2021/05/18 11:59:10;;;;;;;0.38;0.32;;;;;;;;;;5092937;28;20039;-48
2021/05/18 12:01:57;;;;;;;0.30;0.30;;;;;;;;;;5092956;28;20020;-47
2021/05/18 12:04:24;;;;;;;7.07;0.55;;;;;;;;;;5092275;28;20400;-48
2021/05/18 12:06:57;;;;;;;1.30;0.47;;;;;;;;;;5091438;28;20447;-48
2021/05/18 12:09:24;;;;;;;15.77;0.82;;;;;;;;;;5072040;28;20332;-48
2021/05/18 12:11:56;;;;;;;0.43;0.43;;;;;;;;;;5071761;28;20044;-49
2021/05/18 12:14:25;;;;;;;0.90;0.80;;;;;;;;;;5072277;28;20055;-49
2021/05/18 12:16:51;;;;;;;0.75;0.63;;;;;;;;;;5072183;28;20060;-48
2021/05/18 12:19:18;;;;;;;6.70;3.45;;;;;;;;;;5071957;28;20366;-48
2021/05/18 12:21:46;;;;;;;6.32;2.55;;;;;;;;;;5071453;28;20017;-49
2021/05/18 12:24:12;;;;;;;5.82;1.00;;;;;;;;;;5072026;28;20056;-48
2021/05/18 12:26:45;;;;;;;1.35;0.80;;;;;;;;;;5071914;28;20074;-48
2021/05/18 12:29:11;;;;;;;1.58;0.70;;;;;;;;;;5089155;28;20481;-48
2021/05/18 12:31:38;;;;;;;1.58;0.93;;;;;;;;;;5092095;28;20070;-47
2021/05/18 12:34:06;;;;;;;2.08;0.70;;;;;;;;;;5092387;28;20090;-48
2021/05/18 12:36:45;;;;;;;1.42;0.93;;;;;;;;;;5091420;28;20024;-48
2021/05/18 12:39:15;;;;;;;1.80;1.10;;;;;;;;;;5091871;28;20339;-48
2021/05/18 12:41:59;;;;;;;3.08;1.13;;;;;;;;;;5091542;28;20028;-48
2021/05/18 12:44:27;;;;;;;0.90;0.77;;;;;;;;;;5092431;28;20082;-48
2021/05/18 12:47:01;;;;;;;1.25;0.75;;;;;;;;;;5091986;28;20116;-48
2021/05/18 12:49:31;;;;;;;0.90;0.80;;;;;;;;;;5091988;28;20024;-48
2021/05/18 12:52:00;;;;;;;0.63;0.60;;;;;;;;;;5090965;28;20020;-48
2021/05/18 12:54:37;;;;;;;0.50;0.50;;;;;;;;;;5091837;28;20376;-48
2021/05/18 12:57:03;;;;;;;0.40;0.40;;;;;;;;;;5092052;28;20066;-48
2021/05/18 12:59:29;;;;;;;0.55;0.40;;;;;;;;;;5091747;28;20058;-48
2021/05/18 13:01:55;;;;;;;0.52;0.52;;;;;;;;;;5091275;28;20028;-49
2021/05/18 13:04:21;;;;;;;0.30;0.30;;;;;;;;;;5091784;28;20050;-48
2021/05/18 13:06:47;;;;;;;0.30;0.30;;;;;;;;;;5091648;28;20075;-48
2021/05/18 13:09:20;;;;;;;2.13;0.40;;;;;;;;;;5091423;28;20024;-48
2021/05/18 13:14:49;;;;;;;0.40;0.40;;;;;;;;;;5091670;28;20035;-49
2021/05/18 13:17:15;;;;;;;0.30;0.30;;;;;;;;;;5091464;28;20111;-48
2021/05/18 13:19:41;;;;;;;0.60;0.47;;;;;;;;;;5091278;28;20032;-48
2021/05/18 13:22:07;;;;;;;0.40;0.40;;;;;;;;;;5090808;28;20020;-48
2021/05/18 13:26:59;;;;;;;0.38;0.38;;;;;;;;;;5091509;28;20101;-48
2021/05/18 13:29:25;;;;;;;0.20;0.20;;;;;;;;;;5091328;28;20051;-48
2021/05/18 13:31:52;;;;;;;3.20;0.40;;;;;;;;;;5090744;28;20170;-48
2021/05/18 13:34:19;;;;;;;0.20;0.20;;;;;;;;;;5091184;28;20066;-48
2021/05/18 13:36:45;;;;;;;0.30;0.30;;;;;;;;;;5091084;28;20493;-48
2021/05/18 13:39:13;;;;;;;0.30;0.30;;;;;;;;;;5091078;28;20343;-48
2021/05/18 13:41:39;;;;;;;0.30;0.30;;;;;;;;;;5091226;28;20043;-48
2021/05/18 13:44:06;;;;;;;0.20;0.20;;;;;;;;;;5091053;28;20016;-48
2021/05/18 13:46:32;;;;;;;2.38;0.40;;;;;;;;;;5090653;28;20031;-48
2021/05/18 13:48:59;;;;;;;0.30;0.30;;;;;;;;;;5092939;28;20078;-48
2021/05/18 13:51:25;;;;;;;0.47;0.45;;;;;;;;;;5095005;28;20040;-49
2021/05/18 13:53:51;;;;;;;0.22;0.22;;;;;;;;;;5093714;28;20020;-48
2021/05/18 13:56:20;;;;;;;0.30;0.30;;;;;;;;;;5095437;28;20111;-48
2021/05/18 13:58:46;;;;;;;2.00;0.80;;;;;;;;;;5094955;28;20032;-48
2021/05/18 14:01:13;;;;;;;1.23;0.70;;;;;;;;;;5094375;28;20107;-49
2021/05/18 14:03:39;;;;;;;1.92;1.25;;;;;;;;;;5094687;28;20020;-49
2021/05/18 14:06:05;;;;;;;0.30;0.30;;;;;;;;;;5094675;28;20028;-49
2021/05/18 14:08:34;;;;;;;0.38;0.38;;;;;;;;;;5094884;28;20020;-48
2021/05/18 14:11:00;;;;;;;0.50;0.50;;;;;;;;;;5094391;28;20374;-49
2021/05/18 14:13:28;;;;;;;0.40;0.40;;;;;;;;;;5094795;28;20024;-48
2021/05/18 14:15:54;;;;;;;1.23;0.40;;;;;;;;;;5094642;28;20032;-49
2021/05/18 14:18:20;;;;;;;3.83;0.50;;;;;;;;;;5094816;28;20058;-48
2021/05/18 14:20:47;;;;;;;0.40;0.40;;;;;;;;;;5094338;28;20366;-48
2021/05/18 14:23:13;;;;;;;0.52;0.35;;;;;;;;;;5094534;28;20103;-48
2021/05/18 14:25:39;;;;;;;0.30;0.30;;;;;;;;;;5094582;28;20023;-49
2021/05/18 14:28:05;;;;;;;1.27;0.57;;;;;;;;;;5094171;28;20016;-48
2021/05/18 14:30:31;;;;;;;1.27;0.35;;;;;;;;;;5093969;28;20118;-48
2021/05/18 14:32:58;;;;;;;1.65;0.63;;;;;;;;;;5094537;28;20097;-48
2021/05/18 14:35:27;;;;;;;0.40;0.40;;;;;;;;;;5094632;28;20058;-49
2021/05/18 14:37:58;;;;;;;0.30;0.30;;;;;;;;;;5094162;28;20020;-49
2021/05/18 14:40:43;;;;;;;0.30;0.30;;;;;;;;;;5094090;28;20043;-49
2021/05/18 14:45:47;;;;;;;0.60;0.50;;;;;;;;;;5094390;28;20032;-49
2021/05/18 14:53:38;;;;;;;0.32;0.32;;;;;;;;;;5093986;28;20028;-49
2021/05/18 14:56:36;;;;;;;0.30;0.30;;;;;;;;;;5090908;28;20121;-48
2021/05/18 14:59:02;;;;;;;1.15;0.28;;;;;;;;;;5090311;28;20073;-48
2021/05/18 15:01:28;;;;;;;0.43;0.43;;;;;;;;;;5090516;28;20111;-47
2021/05/18 15:03:53;;;;;;;0.60;0.60;;;;;;;;;;5090821;28;20566;-48
2021/05/18 15:06:19;;;;;;;0.73;0.70;;;;;;;;;;5091270;28;20188;-48
2021/05/18 15:08:45;;;;;;;3.33;0.55;;;;;;;;;;5090910;28;20110;-48
2021/05/18 15:11:11;;;;;;;0.50;0.50;;;;;;;;;;5089924;28;20119;-48
2021/05/18 15:13:37;;;;;;;0.60;0.60;;;;;;;;;;5090484;28;20017;-48
2021/05/18 15:16:03;;;;;;;0.20;0.20;;;;;;;;;;5090699;28;20028;-48
2021/05/18 15:18:31;;;;;;;0.73;0.50;;;;;;;;;;5090148;28;20024;-48
2021/05/18 15:20:57;;;;;;;0.30;0.30;;;;;;;;;;5090801;28;20101;-49
2021/05/18 15:23:23;;;;;;;0.73;0.43;;;;;;;;;;5090175;28;20024;-48
2021/05/18 15:25:49;;;;;;;0.30;0.30;;;;;;;;;;5074776;28;20029;-48
2021/05/18 15:28:15;;;;;;;0.40;0.40;;;;;;;;;;5082548;28;20023;-48
2021/05/18 15:30:41;;;;;;;0.40;0.40;;;;;;;;;;5092940;28;20210;-48
2021/05/18 15:33:07;;;;;;;1.75;0.55;;;;;;;;;;5092855;28;20027;-48
2021/05/18 15:35:33;;;;;;;1.27;0.35;;;;;;;;;;5093225;28;20442;-48
2021/05/18 15:38:00;;;;;;;0.70;0.40;;;;;;;;;;5091970;28;20073;-48
2021/05/18 15:40:26;;;;;;;0.85;0.68;;;;;;;;;;5092721;28;20036;-48
2021/05/18 15:42:52;;;;;;;0.98;0.40;;;;;;;;;;5092809;28;20032;-48
2021/05/18 15:45:18;;;;;;;0.32;0.32;;;;;;;;;;5093027;28;20032;-48
2021/05/18 15:47:44;;;;;;;0.43;0.40;;;;;;;;;;5091917;28;20020;-48
2021/05/18 15:50:11;;;;;;;0.30;0.30;;;;;;;;;;5091909;28;20020;-48
2021/05/18 15:52:37;;;;;;;0.52;0.52;;;;;;;;;;5091421;28;20016;-47
2021/05/18 15:55:04;;;;;;;0.32;0.32;;;;;;;;;;5092440;28;20024;-48
2021/05/18 15:57:30;;;;;;;0.40;0.40;;;;;;;;;;5092619;28;20027;-48
2021/05/18 15:59:56;;;;;;;1.05;0.52;;;;;;;;;;5092748;28;20036;-49
2021/05/18 16:02:22;;;;;;;0.35;0.35;;;;;;;;;;5092466;28;20489;-47
2021/05/18 16:04:48;;;;;;;1.73;0.50;;;;;;;;;;5092892;28;20024;-48
2021/05/18 16:07:15;;;;;;;0.38;0.38;;;;;;;;;;5092165;28;20016;-48
2021/05/18 16:09:41;;;;;;;0.50;0.50;;;;;;;;;;5092597;28;20032;-49
2021/05/18 16:12:09;;;;;;;0.85;0.43;;;;;;;;;;5091246;28;20061;-48
2021/05/18 16:14:35;;;;;;;0.75;0.50;;;;;;;;;;5092465;28;20035;-49
2021/05/18 16:17:01;;;;;;;0.30;0.30;;;;;;;;;;5092523;28;20020;-49
2021/05/18 16:19:27;;;;;;;1.73;0.52;;;;;;;;;;5092510;28;20100;-47
2021/05/18 16:21:53;;;;;;;1.40;0.68;;;;;;;;;;5091529;28;20349;-48
2021/05/18 16:24:21;;;;;;;1.40;0.60;;;;;;;;;;5092304;28;20048;-48
2021/05/18 16:26:47;;;;;;;1.38;0.70;;;;;;;;;;5091985;28;20016;-49
2021/05/18 16:29:13;;;;;;;0.57;0.57;;;;;;;;;;5090150;28;20028;-48
2021/05/18 16:31:39;;;;;;;1.75;0.80;;;;;;;;;;5091800;28;20020;-48
2021/05/18 16:34:05;;;;;;;0.70;0.65;;;;;;;;;;5091718;28;20412;-48
2021/05/18 16:36:31;;;;;;;2.63;0.95;;;;;;;;;;5091887;28;20441;-47
2021/05/18 16:38:58;;;;;;;1.48;0.90;;;;;;;;;;5091953;28;20028;-48
2021/05/18 16:41:24;;;;;;;1.23;0.80;;;;;;;;;;5091909;28;20063;-49
2021/05/18 16:43:50;;;;;;;1.02;0.82;;;;;;;;;;5091804;28;20016;-49
2021/05/18 16:46:16;;;;;;;1.17;0.70;;;;;;;;;;5091963;28;20472;-48
2021/05/18 16:48:42;;;;;;;1.17;0.80;;;;;;;;;;5091050;28;20161;-48
2021/05/18 16:51:09;;;;;;;1.25;0.88;;;;;;;;;;5091121;28;20028;-49
2021/05/18 16:53:35;;;;;;;1.83;0.98;;;;;;;;;;5091604;28;20097;-48
2021/05/18 16:56:07;;;;;;;4.13;0.75;;;;;;;;;;5091980;28;20113;-48
2021/05/18 16:58:33;;;;;;;1.38;0.63;;;;;;;;;;5091875;28;20024;-47
2021/05/18 17:00:59;;;;;;;1.05;0.70;;;;;;;;;;5082860;28;20085;-47
2021/05/18 17:03:25;;;;;;;1.13;0.60;;;;;;;;;;5089582;28;20157;-47
2021/05/18 17:05:51;;;;;;;0.68;0.68;;;;;;;;;;5089330;28;20028;-48
2021/05/18 17:08:17;;;;;;;1.25;0.70;;;;;;;;;;5088778;28;20024;-48
2021/05/18 17:10:44;;;;;;;0.80;0.80;;;;;;;;;;5084886;28;20035;-48
2021/05/18 17:13:11;;;;;;;0.57;0.50;;;;;;;;;;5081175;28;20095;-48
2021/05/18 17:15:37;;;;;;;0.90;0.60;;;;;;;;;;5086008;28;20592;-48
2021/05/18 17:18:04;;;;;;;1.17;0.70;;;;;;;;;;5089093;28;20074;-48
2021/05/18 17:20:30;;;;;;;0.85;0.65;;;;;;;;;;5086793;28;20074;-48
2021/05/18 17:22:56;;;;;;;0.77;0.60;;;;;;;;;;5083946;28;20093;-49
2021/05/18 17:25:23;;;;;;;4.20;0.80;;;;;;;;;;5087803;28;20396;-49
2021/05/18 17:27:49;;;;;;;0.50;0.50;;;;;;;;;;5085458;28;20438;-48
2021/05/18 17:30:18;;;;;;;2.15;0.50;;;;;;;;;;5080473;28;20054;-48
2021/05/18 17:32:44;;;;;;;0.70;0.47;;;;;;;;;;5086046;28;20024;-48
2021/05/18 17:35:11;;;;;;;5.60;0.73;;;;;;;;;;5089105;28;20016;-48
2021/05/18 17:37:37;;;;;;;1.02;0.50;;;;;;;;;;5087776;28;20028;-48
2021/05/18 17:40:07;;;;;;;5.78;0.60;;;;;;;;;;5082476;28;20077;-48
2021/05/18 17:42:33;;;;;;;1.60;0.32;;;;;;;;;;5083301;28;20028;-48
2021/05/18 17:45:02;;;;;;;1.70;0.50;;;;;;;;;;5088437;28;20379;-48
2021/05/18 17:47:29;;;;;;;2.50;0.50;;;;;;;;;;5089068;28;20020;-47
2021/05/18 17:49:55;;;;;;;1.10;0.60;;;;;;;;;;5089936;28;20035;-48
2021/05/18 17:52:21;;;;;;;1.10;0.60;;;;;;;;;;5088532;28;20392;-48
2021/05/18 17:54:47;;;;;;;0.95;0.70;;;;;;;;;;5089953;28;20022;-47
2021/05/18 17:57:13;;;;;;;1.27;0.80;;;;;;;;;;5088973;28;20043;-48
2021/05/18 17:59:39;;;;;;;1.92;0.82;;;;;;;;;;5089967;28;20077;-48
2021/05/18 18:02:05;;;;;;;0.50;0.50;;;;;;;;;;5088125;28;20392;-48
2021/05/18 18:04:32;;;;;;;3.35;1.00;;;;;;;;;;5089758;28;20024;-48
2021/05/18 18:06:59;;;;;;;0.68;0.43;;;;;;;;;;5089251;28;20028;-48
2021/05/18 18:09:25;;;;;;;0.57;0.57;;;;;;;;;;5084302;28;20637;-49
2021/05/18 18:11:54;;;;;;;2.63;0.57;;;;;;;;;;5085338;28;20424;-49
2021/05/18 18:14:20;;;;;;;0.85;0.50;;;;;;;;;;5082517;28;20020;-48
2021/05/18 18:16:47;;;;;;;0.57;0.50;;;;;;;;;;5083435;28;20521;-48
2021/05/18 18:19:13;;;;;;;3.70;0.60;;;;;;;;;;5073634;28;20453;-48
2021/05/18 18:21:39;;;;;;;2.00;0.77;;;;;;;;;;5072614;28;20078;-48
2021/05/18 18:24:08;;;;;;;0.60;0.60;;;;;;;;;;5085263;28;20028;-48
2021/05/18 18:26:34;;;;;;;2.00;0.50;;;;;;;;;;5078780;28;20028;-48
2021/05/18 18:29:00;;;;;;;0.80;0.80;;;;;;;;;;5086826;28;20028;-48
2021/05/18 18:31:26;;;;;;;1.02;0.73;;;;;;;;;;5081037;28;20025;-48
2021/05/18 18:33:52;;;;;;;1.40;0.63;;;;;;;;;;5081437;28;20057;-48
2021/05/18 18:36:19;;;;;;;3.47;0.80;;;;;;;;;;5085003;28;20024;-48
2021/05/18 18:38:45;;;;;;;0.45;0.45;;;;;;;;;;5089539;28;20445;-48
2021/05/18 18:41:11;;;;;;;4.15;1.05;;;;;;;;;;5087874;28;20020;-48
2021/05/18 18:43:37;;;;;;;7.25;2.30;;;;;;;;;;5074856;28;20366;-48
2021/05/18 18:46:05;;;;;;;9.95;2.42;;;;;;;;;;5073763;28;20099;-48
2021/05/18 18:48:31;;;;;;;8.90;2.85;;;;;;;;;;5086579;28;20457;-48
2021/05/18 18:51:03;;;;;;;3.97;1.67;;;;;;;;;;5073967;28;20032;-48
2021/05/18 18:53:40;;;;;;;3.20;1.40;;;;;;;;;;5073892;28;20023;-48
2021/05/18 18:56:06;;;;;;;2.50;1.30;;;;;;;;;;5078521;28;20098;-48
2021/05/18 18:58:32;;;;;;;0.63;0.60;;;;;;;;;;5094378;28;20028;-48
2021/05/18 19:00:58;;;;;;;1.55;0.65;;;;;;;;;;5093429;28;20032;-48
2021/05/18 19:03:30;;;;;;;4.18;1.52;;;;;;;;;;5094019;28;20024;-48
2021/05/18 19:13:58;;;;;;;2.90;1.10;;;;;;;;;;5085256;28;20024;-47
2021/05/18 19:16:24;;;;;;;4.25;0.98;;;;;;;;;;5086399;28;20682;-48
2021/05/18 19:18:51;;;;;;;1.15;0.82;;;;;;;;;;5093043;28;20015;-47
2021/05/18 19:21:17;;;;;;;2.60;1.50;;;;;;;;;;5091978;28;20035;-47
2021/05/18 19:23:43;;;;;;;3.03;1.20;;;;;;;;;;5090187;28;20020;-48
2021/05/18 19:26:11;;;;;;;4.32;2.00;;;;;;;;;;5092677;28;20473;-48
2021/05/18 19:28:37;;;;;;;3.03;1.00;;;;;;;;;;5091365;28;20405;-48
2021/05/18 19:31:03;;;;;;;1.13;0.57;;;;;;;;;;5088238;28;20012;-48
2021/05/18 19:33:29;;;;;;;4.70;0.95;;;;;;;;;;5089892;28;20024;-48
2021/05/18 19:44:03;;;;;;;3.13;1.08;;;;;;;;;;5090063;28;20457;-48
2021/05/18 19:49:32;;;;;;;0.55;0.50;;;;;;;;;;5090040;28;20038;-48
2021/05/18 19:51:59;;;;;;;0.43;0.40;;;;;;;;;;5090897;28;20122;-48